createdAt,value
2023-02-18T00:01:38.282Z,0.90
2023-02-18T00:04:05.875Z,1.20
2023-02-18T00:06:35.586Z,1.10
2023-02-18T00:09:04.779Z,1.10
2023-02-18T00:11:36.423Z,1.17
2023-02-18T00:14:05.896Z,0.80
2023-02-18T00:16:36.870Z,0.98
2023-02-18T00:19:06.797Z,1.00
2023-02-18T00:21:35.994Z,0.73
2023-02-18T00:24:04.294Z,0.70
2023-02-18T00:26:35.037Z,0.98
2023-02-18T00:29:03.319Z,0.65
2023-02-18T00:31:33.579Z,1.08
2023-02-18T00:34:01.931Z,0.88
2023-02-18T00:36:30.649Z,0.80
2023-02-18T00:39:00.266Z,0.95
2023-02-18T00:41:29.642Z,1.00
2023-02-18T00:43:58.779Z,0.95
2023-02-18T00:46:27.549Z,1.27
2023-02-18T00:48:55.690Z,1.08
2023-02-18T00:51:24.212Z,1.08
2023-02-18T00:53:52.246Z,0.75
2023-02-18T00:56:20.783Z,0.90
2023-02-18T00:58:48.464Z,0.90
2023-02-18T01:01:18.942Z,0.65
2023-02-18T01:03:46.445Z,0.90
2023-02-18T01:06:14.660Z,0.82
2023-02-18T01:08:42.519Z,0.80
2023-02-18T01:11:12.201Z,0.82
2023-02-18T01:13:41.191Z,0.82
2023-02-18T01:16:09.933Z,0.88
2023-02-18T01:18:40.031Z,0.70
2023-02-18T01:21:08.951Z,1.25
2023-02-18T01:23:37.333Z,0.90
2023-02-18T01:26:05.970Z,0.93
2023-02-18T01:28:34.048Z,1.17
2023-02-18T01:31:06.243Z,1.30
2023-02-18T01:33:34.159Z,0.80
2023-02-18T01:36:04.035Z,1.10
2023-02-18T01:38:31.759Z,1.35
2023-02-18T01:41:00.123Z,1.10
2023-02-18T01:43:27.620Z,1.10
2023-02-18T01:46:12.650Z,0.88
2023-02-18T01:48:43.482Z,0.98
2023-02-18T01:51:18.831Z,0.70
2023-02-18T01:53:52.784Z,0.70
2023-02-18T01:56:25.437Z,0.93
2023-02-18T01:58:55.310Z,1.33
2023-02-18T02:01:24.679Z,0.70
2023-02-18T02:03:52.305Z,0.60
2023-02-18T02:06:23.693Z,0.68
2023-02-18T02:08:54.270Z,0.60
2023-02-18T02:11:31.740Z,0.93
2023-02-18T02:14:25.352Z,0.80
2023-02-18T02:16:58.276Z,0.63
2023-02-18T02:19:56.382Z,0.80
2023-02-18T02:22:54.155Z,0.80
2023-02-18T02:25:37.140Z,1.10
2023-02-18T02:28:43.646Z,0.80
2023-02-18T02:31:41.556Z,0.63
2023-02-18T02:34:38.201Z,0.93
2023-02-18T02:37:14.560Z,0.60
2023-02-18T02:39:56.549Z,0.90
2023-02-18T02:42:28.964Z,0.80
2023-02-18T02:45:04.357Z,1.10
2023-02-18T02:47:43.891Z,0.57
2023-02-18T02:50:19.149Z,0.80
2023-02-18T02:52:51.066Z,0.77
2023-02-18T02:55:19.170Z,0.70
2023-02-18T02:57:50.035Z,0.75
2023-02-18T03:00:21.296Z,0.80
2023-02-18T03:03:07.921Z,1.10
2023-02-18T03:05:55.867Z,1.10
2023-02-18T03:08:39.277Z,1.00
2023-02-18T03:11:10.310Z,0.80
2023-02-18T03:13:53.890Z,1.08
2023-02-18T03:16:28.735Z,0.80
2023-02-18T03:19:06.536Z,0.82
2023-02-18T03:21:40.803Z,0.90
2023-02-18T03:24:14.661Z,0.70
2023-02-18T03:26:47.357Z,0.90
2023-02-18T03:29:18.291Z,0.60
2023-02-18T03:31:51.241Z,0.60
2023-02-18T03:34:23.890Z,0.60
2023-02-18T03:36:54.228Z,0.73
2023-02-18T03:39:24.918Z,0.50
2023-02-18T03:41:53.445Z,0.60
2023-02-18T03:44:21.354Z,0.60
2023-02-18T03:46:49.295Z,0.73
2023-02-18T03:49:16.914Z,0.55
2023-02-18T03:51:44.889Z,0.57
2023-02-18T03:54:13.989Z,0.63
2023-02-18T03:56:42.566Z,0.47
2023-02-18T03:59:11.803Z,0.70
2023-02-18T04:01:39.868Z,0.80
2023-02-18T04:04:07.518Z,0.50
2023-02-18T04:06:35.796Z,0.52
2023-02-18T04:09:03.545Z,0.75
2023-02-18T04:11:33.109Z,0.50
2023-02-18T04:14:00.669Z,0.50
2023-02-18T04:16:28.649Z,0.60
2023-02-18T04:18:56.133Z,0.73
2023-02-18T04:21:24.266Z,0.70
2023-02-18T04:23:51.884Z,0.45
2023-02-18T04:26:19.902Z,0.93
2023-02-18T04:28:51.792Z,0.47
2023-02-18T04:31:19.827Z,0.68
2023-02-18T04:33:47.377Z,0.50
2023-02-18T04:36:15.572Z,0.63
2023-02-18T04:38:43.301Z,0.70
2023-02-18T04:41:11.250Z,0.50
2023-02-18T04:43:39.074Z,0.60
2023-02-18T04:46:08.899Z,0.68
2023-02-18T04:48:36.758Z,0.50
2023-02-18T04:51:05.142Z,0.70
2023-02-18T04:53:32.581Z,0.45
2023-02-18T04:56:00.769Z,0.60
2023-02-18T04:58:28.510Z,0.80
2023-02-18T05:01:00.279Z,0.50
2023-02-18T05:03:29.789Z,1.02
2023-02-18T05:05:58.486Z,0.70
2023-02-18T05:08:26.245Z,0.70
2023-02-18T05:10:54.188Z,0.63
2023-02-18T05:13:21.708Z,0.38
2023-02-18T05:15:49.716Z,0.47
2023-02-18T05:18:17.140Z,0.55
2023-02-18T05:20:46.560Z,0.60
2023-02-18T05:23:14.158Z,0.70
2023-02-18T05:25:42.069Z,0.95
2023-02-18T05:28:09.593Z,0.52
2023-02-18T05:30:37.594Z,0.85
2023-02-18T05:33:05.224Z,0.70
2023-02-18T05:35:33.312Z,0.60
2023-02-18T05:38:02.302Z,0.88
2023-02-18T05:40:30.596Z,0.50
2023-02-18T05:42:58.390Z,0.80
2023-02-18T05:45:26.428Z,0.70
2023-02-18T05:47:53.883Z,0.60
2023-02-18T05:50:21.760Z,0.47
2023-02-18T05:52:49.268Z,0.60
2023-02-18T05:55:19.195Z,0.35
2023-02-18T05:57:46.867Z,0.60
2023-02-18T06:00:15.530Z,0.60
2023-02-18T06:02:43.158Z,0.60
2023-02-18T06:05:11.683Z,0.40
2023-02-18T06:07:39.223Z,0.60
2023-02-18T06:10:08.556Z,0.73
2023-02-18T06:12:37.571Z,0.30
2023-02-18T06:15:06.226Z,0.40
2023-02-18T06:17:33.894Z,0.63
2023-02-18T06:20:01.982Z,0.40
2023-02-18T06:22:29.603Z,0.55
2023-02-18T06:24:57.563Z,0.60
2023-02-18T06:27:25.365Z,0.60
2023-02-18T06:29:54.822Z,0.55
2023-02-18T06:32:22.553Z,0.70
2023-02-18T06:34:50.547Z,0.40
2023-02-18T06:37:18.107Z,0.60
2023-02-18T06:39:46.098Z,0.65
2023-02-18T06:42:13.738Z,0.40
2023-02-18T06:44:41.863Z,1.00
2023-02-18T06:47:10.838Z,0.50
2023-02-18T06:49:38.863Z,0.47
2023-02-18T06:52:06.482Z,0.50
2023-02-18T06:54:34.657Z,0.90
2023-02-18T06:57:02.383Z,0.52
2023-02-18T06:59:30.384Z,0.93
2023-02-18T07:01:57.957Z,0.50
2023-02-18T07:04:27.408Z,0.70
2023-02-18T07:06:55.120Z,0.65
2023-02-18T07:09:22.984Z,0.65
2023-02-18T07:11:50.557Z,0.50
2023-02-18T07:14:18.626Z,0.60
2023-02-18T07:16:46.197Z,0.82
2023-02-18T07:19:15.004Z,0.70
2023-02-18T07:21:44.185Z,0.90
2023-02-18T07:24:12.159Z,0.70
2023-02-18T07:26:39.833Z,0.50
2023-02-18T07:29:07.758Z,0.68
2023-02-18T07:31:35.424Z,0.52
2023-02-18T07:34:03.602Z,0.60
2023-02-18T07:36:31.157Z,0.70
2023-02-18T07:39:00.615Z,0.80
2023-02-18T07:41:28.148Z,0.73
2023-02-18T07:43:56.080Z,0.60
2023-02-18T07:46:26.910Z,0.82
2023-02-18T07:48:54.934Z,0.60
2023-02-18T07:51:22.797Z,0.88
2023-02-18T07:53:50.717Z,0.95
2023-02-18T07:56:19.879Z,0.60
2023-02-18T07:58:47.890Z,0.60
2023-02-18T08:01:15.949Z,0.80
2023-02-18T08:04:23.203Z,0.80
2023-02-18T08:06:53.002Z,0.70
2023-02-18T08:09:21.040Z,0.98
2023-02-18T08:11:50.185Z,0.90
2023-02-18T08:14:18.142Z,0.75
2023-02-18T08:16:45.798Z,0.93
2023-02-18T08:19:14.088Z,1.20
2023-02-18T08:21:41.723Z,1.10
2023-02-18T08:24:09.696Z,0.90
2023-02-18T08:26:37.391Z,1.23
2023-02-18T08:29:07.018Z,0.90
2023-02-18T08:31:34.924Z,0.90
2023-02-18T08:34:03.197Z,0.85
2023-02-18T08:36:31.195Z,0.98
2023-02-18T08:38:59.137Z,0.80
2023-02-18T08:41:27.046Z,0.98
2023-02-18T08:43:56.696Z,0.75
2023-02-18T08:46:35.265Z,0.68
2023-02-18T08:49:05.624Z,0.90
2023-02-18T08:51:33.924Z,0.85
2023-02-18T08:54:02.558Z,0.73
2023-02-18T08:56:30.219Z,0.90
2023-02-18T08:58:59.165Z,0.77
2023-02-18T09:01:28.374Z,0.73
2023-02-18T09:03:56.670Z,0.60
2023-02-18T09:06:24.493Z,0.73
2023-02-18T09:08:52.534Z,0.60
2023-02-18T09:11:20.498Z,0.57
2023-02-18T09:13:48.606Z,0.85
2023-02-18T09:16:17.956Z,0.70
2023-02-18T09:18:48.361Z,0.85
2023-02-18T09:21:17.241Z,0.82
2023-02-18T09:23:45.252Z,1.10
2023-02-18T09:26:15.250Z,0.88
2023-02-18T09:28:44.989Z,1.00
2023-02-18T09:31:14.840Z,1.10
2023-02-18T09:33:45.988Z,0.80
2023-02-18T09:36:15.304Z,1.33
2023-02-18T09:38:43.927Z,0.90
2023-02-18T09:41:17.582Z,0.80
2023-02-18T09:43:49.730Z,0.75
2023-02-18T09:46:21.940Z,0.80
2023-02-18T09:48:52.530Z,0.80
2023-02-18T09:51:21.777Z,0.80
2023-02-18T09:53:49.967Z,1.10
2023-02-18T09:56:21.033Z,1.10
2023-02-18T09:58:52.499Z,0.77
2023-02-18T10:01:27.805Z,1.08
2023-02-18T10:04:00.671Z,1.23
2023-02-18T10:09:03.756Z,1.10
2023-02-18T10:14:02.655Z,1.23
2023-02-18T10:16:30.928Z,1.30
2023-02-18T10:19:04.239Z,1.38
2023-02-18T10:21:35.359Z,1.05
2023-02-18T10:24:07.072Z,1.20
2023-02-18T10:26:37.691Z,1.17
2023-02-18T10:29:14.659Z,1.35
2023-02-18T10:31:49.030Z,1.35
2023-02-18T10:34:23.943Z,1.60
2023-02-18T10:36:57.294Z,1.45
2023-02-18T10:39:40.905Z,1.52
2023-02-18T10:42:23.674Z,1.15
2023-02-18T10:45:03.824Z,1.60
2023-02-18T10:47:39.501Z,1.25
2023-02-18T10:50:12.963Z,1.40
2023-02-18T10:52:44.587Z,1.25
2023-02-18T10:55:14.133Z,1.48
2023-02-18T10:57:50.034Z,1.08
2023-02-18T11:00:20.969Z,1.10
2023-02-18T11:03:04.001Z,2.10
2023-02-18T11:05:36.646Z,4.25
2023-02-18T11:08:09.941Z,4.60
2023-02-18T11:10:42.536Z,5.45
2023-02-18T11:13:12.909Z,5.50
2023-02-18T11:15:55.818Z,5.63
2023-02-18T11:18:39.543Z,5.30
2023-02-18T11:21:21.638Z,3.38
2023-02-18T11:23:52.535Z,2.28
2023-02-18T11:26:28.506Z,2.17
2023-02-18T11:29:00.928Z,2.35
2023-02-18T11:31:39.864Z,2.10
2023-02-18T11:34:16.844Z,2.53
2023-02-18T11:36:45.232Z,2.83
2023-02-18T11:39:20.514Z,2.70
2023-02-18T11:41:54.255Z,2.28
2023-02-18T11:44:26.659Z,2.80
2023-02-18T11:47:00.626Z,2.08
2023-02-18T11:49:28.854Z,2.20
2023-02-18T11:52:05.474Z,2.60
2023-02-18T11:54:34.703Z,2.15
2023-02-18T11:57:05.730Z,2.83
2023-02-18T11:59:35.907Z,2.30
2023-02-18T12:02:25.973Z,3.10
2023-02-18T12:04:59.024Z,2.55
2023-02-18T12:07:30.549Z,2.85
2023-02-18T12:10:04.875Z,2.60
2023-02-18T12:12:41.731Z,2.70
2023-02-18T12:15:14.095Z,2.20
2023-02-18T12:18:03.729Z,2.35
2023-02-18T12:20:58.263Z,1.88
2023-02-18T12:23:36.444Z,2.20
2023-02-18T12:26:18.459Z,2.17
2023-02-18T12:29:01.217Z,1.73
2023-02-18T12:31:49.938Z,2.00
2023-02-18T12:34:40.081Z,2.40
2023-02-18T12:37:31.119Z,2.58
2023-02-18T12:42:54.183Z,2.80
2023-02-18T12:45:49.337Z,3.33
2023-02-18T12:48:34.521Z,3.20
2023-02-18T12:51:25.596Z,3.70
2023-02-18T12:54:11.930Z,3.78
2023-02-18T12:57:13.422Z,3.30
2023-02-18T12:59:59.395Z,3.35
2023-02-18T13:03:06.457Z,4.03
2023-02-18T13:05:44.268Z,3.65
2023-02-18T13:08:27.120Z,4.22
2023-02-18T13:11:08.048Z,3.85
2023-02-18T13:13:41.300Z,5.22
2023-02-18T13:16:13.986Z,5.03
2023-02-18T13:18:47.565Z,5.07
2023-02-18T13:21:16.970Z,5.22
2023-02-18T13:23:52.085Z,5.20
2023-02-18T13:26:21.339Z,5.40
2023-02-18T13:28:56.112Z,6.68
2023-02-18T13:31:39.655Z,7.28
2023-02-18T13:34:15.619Z,7.03
2023-02-18T13:36:55.195Z,5.78
2023-02-18T13:39:24.950Z,6.28
2023-02-18T13:42:10.451Z,7.82
2023-02-18T13:45:04.200Z,5.72
2023-02-18T13:47:42.088Z,7.28
2023-02-18T13:50:30.123Z,8.30
2023-02-18T13:53:15.771Z,9.43
2023-02-18T13:55:52.775Z,8.63
2023-02-18T13:58:24.181Z,8.48
2023-02-18T14:00:56.995Z,7.20
2023-02-18T14:03:53.051Z,5.07
2023-02-18T14:06:24.549Z,6.10
2023-02-18T14:09:02.172Z,7.38
2023-02-18T14:11:40.027Z,9.15
2023-02-18T14:14:49.331Z,8.57
2023-02-18T14:17:34.603Z,10.07
2023-02-18T14:20:33.397Z,10.57
2023-02-18T14:23:11.155Z,7.05
2023-02-18T14:25:40.731Z,6.40
2023-02-18T14:28:37.702Z,5.68
2023-02-18T14:31:19.351Z,5.97
2023-02-18T14:33:59.920Z,4.97
2023-02-18T14:36:36.011Z,5.70
2023-02-18T14:39:14.891Z,5.90
2023-02-18T14:41:55.753Z,6.15
2023-02-18T14:44:46.690Z,2.45
2023-02-18T14:47:29.146Z,1.60
2023-02-18T14:50:00.061Z,1.52
2023-02-18T14:52:33.868Z,1.45
2023-02-18T14:55:05.018Z,1.25
2023-02-18T14:57:39.578Z,1.00
2023-02-18T15:00:16.702Z,1.23
2023-02-18T15:02:44.488Z,1.30
2023-02-18T15:05:16.030Z,1.40
2023-02-18T15:07:55.440Z,1.35
2023-02-18T15:10:32.770Z,1.20
2023-02-18T15:13:02.572Z,1.30
2023-02-18T15:15:32.989Z,1.05
2023-02-18T15:18:00.740Z,1.33
2023-02-18T15:20:32.589Z,1.10
2023-02-18T15:23:02.303Z,1.40
2023-02-18T15:25:30.753Z,1.40
2023-02-18T15:27:58.377Z,1.73
2023-02-18T15:30:28.060Z,1.38
2023-02-18T15:32:57.620Z,1.02
2023-02-18T15:35:28.887Z,1.13
2023-02-18T15:37:58.782Z,1.17
2023-02-18T15:40:31.933Z,1.08
2023-02-18T15:43:02.164Z,1.17
2023-02-18T15:45:33.231Z,0.98
2023-02-18T15:48:01.373Z,1.02
2023-02-18T15:50:33.200Z,0.85
2023-02-18T15:53:06.572Z,1.00
2023-02-18T15:55:39.210Z,0.93
2023-02-18T15:58:13.830Z,1.10
2023-02-18T16:00:48.286Z,1.20
2023-02-18T16:03:20.917Z,0.85
2023-02-18T16:05:49.318Z,1.00
2023-02-18T16:08:23.783Z,0.90
2023-02-18T16:10:57.644Z,0.90
2023-02-18T16:13:26.795Z,0.98
2023-02-18T16:15:55.162Z,1.23
2023-02-18T16:18:31.467Z,1.05
2023-02-18T16:21:01.859Z,1.15
2023-02-18T16:23:36.963Z,1.00
2023-02-18T16:26:27.150Z,1.50
2023-02-18T16:28:55.679Z,1.10
2023-02-18T16:31:23.862Z,2.47
2023-02-18T16:33:52.505Z,0.93
2023-02-18T16:36:23.538Z,0.88
2023-02-18T16:38:51.136Z,1.20
2023-02-18T16:41:19.086Z,0.80
2023-02-18T16:43:48.031Z,0.90
2023-02-18T16:46:17.993Z,1.00
2023-02-18T16:48:49.173Z,0.98
2023-02-18T16:51:21.289Z,0.82
2023-02-18T16:53:48.809Z,0.90
2023-02-18T16:56:18.416Z,0.90
2023-02-18T16:58:47.477Z,0.77
2023-02-18T17:01:22.988Z,0.60
2023-02-18T17:03:51.339Z,1.02
2023-02-18T17:06:20.276Z,0.82
2023-02-18T17:08:48.388Z,0.80
2023-02-18T17:11:20.336Z,0.88
2023-02-18T17:13:50.097Z,1.00
2023-02-18T17:16:18.541Z,0.80
2023-02-18T17:18:47.182Z,1.50
2023-02-18T17:21:16.191Z,1.35
2023-02-18T17:23:44.321Z,0.80
2023-02-18T17:26:16.100Z,0.75
2023-02-18T17:28:43.762Z,0.90
2023-02-18T17:31:17.549Z,1.02
2023-02-18T17:33:46.252Z,0.93
2023-02-18T17:36:14.331Z,0.90
2023-02-18T17:38:41.968Z,1.13
2023-02-18T17:41:12.805Z,1.17
2023-02-18T17:43:40.553Z,1.08
2023-02-18T17:46:11.878Z,1.00
2023-02-18T17:48:41.866Z,1.00
2023-02-18T17:51:19.583Z,1.05
2023-02-18T17:53:47.248Z,0.80
2023-02-18T17:56:15.723Z,1.30
2023-02-18T17:58:43.423Z,0.93
2023-02-18T18:01:11.535Z,1.30
2023-02-18T18:03:40.550Z,1.10
2023-02-18T18:06:15.807Z,1.23
2023-02-18T18:08:43.743Z,1.20
2023-02-18T18:11:14.434Z,1.25
2023-02-18T18:13:42.512Z,1.20
2023-02-18T18:16:11.980Z,1.27
2023-02-18T18:18:41.009Z,1.10
2023-02-18T18:21:18.614Z,1.20
2023-02-18T18:23:46.253Z,1.30
2023-02-18T18:26:14.317Z,1.25
2023-02-18T18:28:42.348Z,1.10
2023-02-18T18:31:14.448Z,1.52
2023-02-18T18:33:43.458Z,1.00
2023-02-18T18:36:11.690Z,1.08
2023-02-18T18:38:39.349Z,1.00
2023-02-18T18:41:12.984Z,0.98
2023-02-18T18:43:40.622Z,1.00
2023-02-18T18:46:08.680Z,1.50
2023-02-18T18:48:36.372Z,1.38
2023-02-18T18:51:06.474Z,1.67
2023-02-18T18:53:35.658Z,1.40
2023-02-18T18:56:05.643Z,1.38
2023-02-18T18:58:33.545Z,1.52
2023-02-18T19:01:04.276Z,1.48
2023-02-18T19:03:32.276Z,1.52
2023-02-18T19:06:00.366Z,1.55
2023-02-18T19:08:29.372Z,1.52
2023-02-18T19:10:57.888Z,1.50
2023-02-18T19:13:27.300Z,1.60
2023-02-18T19:16:01.455Z,2.10
2023-02-18T19:18:29.235Z,1.90
2023-02-18T19:20:57.285Z,1.52
2023-02-18T19:23:25.559Z,1.73
2023-02-18T19:25:55.084Z,1.80
2023-02-18T19:28:22.800Z,2.05
2023-02-18T19:30:50.883Z,2.00
2023-02-18T19:33:18.542Z,1.75
2023-02-18T19:35:46.618Z,1.70
2023-02-18T19:38:16.670Z,2.05
2023-02-18T20:34:49.648Z,1.30
2023-02-18T20:37:17.752Z,1.20
2023-02-18T20:39:45.328Z,1.10
2023-02-18T20:55:34.272Z,2.25
2023-02-18T20:58:02.455Z,2.60
2023-02-18T21:00:30.170Z,1.88
2023-02-18T21:02:58.371Z,1.63
2023-02-18T21:05:26.432Z,2.13
2023-02-18T21:07:54.531Z,1.42
2023-02-18T21:10:22.341Z,1.70
2023-02-18T21:12:51.822Z,1.10
2023-02-18T21:15:19.567Z,1.73
2023-02-18T21:17:47.840Z,1.83
2023-02-18T21:20:15.805Z,2.00
2023-02-18T21:22:44.603Z,2.33
2023-02-18T21:25:12.627Z,2.30
2023-02-18T21:27:40.929Z,2.50
2023-02-18T21:30:11.122Z,1.90
2023-02-18T21:32:39.792Z,2.17
2023-02-18T21:35:07.899Z,1.90
2023-02-18T21:37:36.187Z,2.42
2023-02-18T21:40:04.284Z,1.90
2023-02-18T21:42:32.462Z,1.75
2023-02-18T21:45:00.023Z,1.27
2023-02-18T21:47:29.036Z,1.75
2023-02-18T21:49:57.451Z,1.63
2023-02-18T21:52:27.088Z,2.08
2023-02-18T21:54:55.703Z,3.30
2023-02-18T21:57:23.406Z,2.15
2023-02-18T21:59:52.127Z,1.73
2023-02-18T22:02:22.144Z,1.60
2023-02-18T22:04:52.758Z,2.05
2023-02-18T22:07:22.223Z,2.92
2023-02-18T22:09:51.301Z,2.65
2023-02-18T22:12:19.650Z,2.60
2023-02-18T22:14:47.894Z,1.80
2023-02-18T22:17:16.427Z,1.70
2023-02-18T22:19:44.736Z,1.40
2023-02-18T22:22:14.257Z,1.55
2023-02-18T22:24:42.388Z,1.23
2023-02-18T22:27:10.122Z,1.48
2023-02-18T22:29:38.465Z,0.80
2023-02-18T22:32:06.214Z,1.00
2023-02-18T22:34:34.418Z,1.27
2023-02-18T22:37:02.128Z,1.20
2023-02-18T22:39:31.805Z,1.10
2023-02-18T22:41:59.405Z,1.38
2023-02-18T22:44:27.426Z,1.20
2023-02-18T22:46:56.358Z,1.27
2023-02-18T22:49:25.124Z,1.40
2023-02-18T22:51:54.276Z,1.10
2023-02-18T22:54:22.329Z,1.15
2023-02-18T22:56:53.259Z,1.30
2023-02-18T22:59:21.227Z,1.23
2023-02-18T23:01:49.949Z,1.30
2023-02-18T23:04:20.148Z,1.33
2023-02-18T23:06:48.845Z,1.27
2023-02-18T23:09:19.366Z,1.20
2023-02-18T23:11:52.700Z,1.38
2023-02-18T23:14:21.275Z,1.25
2023-02-18T23:16:51.434Z,1.33
2023-02-18T23:19:19.640Z,1.40
2023-02-18T23:21:47.753Z,1.55
2023-02-18T23:24:15.894Z,1.45
2023-02-18T23:26:44.087Z,1.80
2023-02-18T23:29:13.912Z,2.33
2023-02-18T23:31:41.790Z,2.50
2023-02-18T23:34:14.362Z,2.15
2023-02-18T23:36:42.198Z,1.77
2023-02-18T23:39:12.308Z,1.85
2023-02-18T23:41:40.118Z,2.47
2023-02-18T23:44:10.875Z,2.92
2023-02-18T23:46:40.460Z,2.65
2023-02-18T23:49:08.582Z,3.00
2023-02-18T23:51:36.312Z,2.70
2023-02-18T23:54:07.428Z,2.55
2023-02-18T23:56:35.275Z,2.10
2023-02-18T23:59:04.940Z,1.75
